Caribe Alliance — WDC9383 — position and weather

sailwx.info

Track history (hours):
 
Tides and Currents Weather Stations Pressure Air Temp Water Temp Dewpoint Dewpoint Depression Visibility Wind Speed Wind Dir Waves Ship Positions

Caribe Alliance

Owner: Gulf Caribe Maritime, Redondo Beach, CA. More information available from US FCC via Universal Licensing System and Coast Guard Vessel Documentation Center.

Last reported at 2017-May-24 18:56 UTC. Time now 2017-May-27 00:25 UTC.
Position N 33°52' W 118°25'.

Length 19 m; draft 3.3 m.

Type: Port tender. MMSI: 367101530.

Date/timePositionNaut miles runAvg speedWind from/ knotsBaromVisibWave heightAir tempDewpointWater temp
2017-May-24 18:56N 33°52' W 118°25'3 6.4
2017-May-24 18:28N 33°55' W 118°27'0 0.1
2017-May-24 17:58N 33°55' W 118°27'0 0.1
2017-May-24 17:09N 33°55' W 118°27'0 0.1
2017-May-24 16:56N 33°55' W 118°27'2 0.7
2017-May-24 14:35N 33°54' W 118°29'2 6.6
2017-May-24 14:19N 33°53' W 118°31'6 2.8
2017-May-24 12:03N 33°51' W 118°24'  
2017-May-21 16:39N 33°54' W 118°27'0 0.7
2017-May-21 16:29N 33°54' W 118°27'0 0.4
2017-May-21 16:00N 33°54' W 118°27'0 0.3
2017-May-21 15:30N 33°54' W 118°27'0 1.0
2017-May-21 15:00N 33°55' W 118°28'1 0.6
2017-May-21 13:51N 33°54' W 118°28'1 1.2
2017-May-21 12:44N 33°55' W 118°27'0 0.0
2017-May-21 12:26N 33°55' W 118°27'0 0.0
2017-May-21 10:50N 33°55' W 118°27'0 0.0
2017-May-21 10:02N 33°55' W 118°27'0 0.0
2017-May-21 09:56N 33°55' W 118°27'0 0.0
2017-May-21 09:30N 33°55' W 118°27'0 0.1
2017-May-21 09:01N 33°55' W 118°27'0 0.3
2017-May-21 08:03N 33°55' W 118°27'4 0.1
2017-May-19 04:38N 33°51' W 118°24'2 9.9
2017-May-19 04:29N 33°52' W 118°25'2 5.0
2017-May-19 04:00N 33°54' W 118°27'  
Track history (hours):
 
Tides and Currents Weather Stations Pressure Air Temp Water Temp Dewpoint Dewpoint Depression Visibility Wind Speed Wind Dir Waves Ship Positions

Caribe Alliance

Owner: Gulf Caribe Maritime, Redondo Beach, CA. More information available from US FCC via Universal Licensing System and Coast Guard Vessel Documentation Center.

Last reported at 2017-May-24 18:56 UTC. Time now 2017-May-27 00:25 UTC.
Position N 33°52' W 118°25'.

Length 19 m; draft 3.3 m.

Type: Port tender. MMSI: 367101530.

Date/timePositionNaut miles runAvg speedWind from/ knotsBaromVisibWave heightAir tempDewpointWater temp
2017-May-24 18:56N 33°52' W 118°25'3 6.4
2017-May-24 18:28N 33°55' W 118°27'0 0.1
2017-May-24 17:58N 33°55' W 118°27'0 0.1
2017-May-24 17:09N 33°55' W 118°27'0 0.1
2017-May-24 16:56N 33°55' W 118°27'2 0.7
2017-May-24 14:35N 33°54' W 118°29'2 6.6
2017-May-24 14:19N 33°53' W 118°31'6 2.8
2017-May-24 12:03N 33°51' W 118°24'  
2017-May-21 16:39N 33°54' W 118°27'0 0.7
2017-May-21 16:29N 33°54' W 118°27'0 0.4
2017-May-21 16:00N 33°54' W 118°27'0 0.3
2017-May-21 15:30N 33°54' W 118°27'0 1.0
2017-May-21 15:00N 33°55' W 118°28'1 0.6
2017-May-21 13:51N 33°54' W 118°28'1 1.2
2017-May-21 12:44N 33°55' W 118°27'0 0.0
2017-May-21 12:26N 33°55' W 118°27'0 0.0
2017-May-21 10:50N 33°55' W 118°27'0 0.0
2017-May-21 10:02N 33°55' W 118°27'0 0.0
2017-May-21 09:56N 33°55' W 118°27'0 0.0
2017-May-21 09:30N 33°55' W 118°27'0 0.1
2017-May-21 09:01N 33°55' W 118°27'0 0.3
2017-May-21 08:03N 33°55' W 118°27'4 0.1
2017-May-19 04:38N 33°51' W 118°24'2 9.9
2017-May-19 04:29N 33°52' W 118°25'2 5.0
2017-May-19 04:00N 33°54' W 118°27'  

Dump ship's entire track history